• Join FlightAware (Why Join?)
  • Login
  • US Flag 
02:11AM EDT


 

Airport Tracker/Info


-or-


 

Live Flight TrackerFlight Track Log ✈ SWA631 ✈ 05-Oct-2013 ✈ KDAL - KELP

Flight Track Log - Related Links

Times and Time Zones

All times are in EDT time to prevent confusion due to time zone crossing. See the SWA631 flight status page for this flight to view local times or setup timezone preferences in your user account.

Time Position Orientation Groundspeed Altitude Reporting Facility
EDT Latitude Longitude Course Direction KTS MPH feet Rate Location/Type
04:14PM 32.8833 -96.8833 308° West 176 203 2,200  Level Dallas / Fort Worth TRACON
04:15PM 32.9167 -96.9333 308° West 248 285 4,500 2,580 Climbing Dallas / Fort Worth TRACON
04:16PM 32.9167 -97.0167 270° West 273 314 7,200 2,580 Climbing Dallas / Fort Worth TRACON
04:19PM 32.8981 -97.2550 265° West 307 353 13,300 2,580 Climbing Fort Worth Center
04:20PM 32.8897 -97.3539 264° West 337 388 16,200 3,000 Climbing Fort Worth Center
04:21PM 32.8792 -97.4728 264° West 335 386 19,300 2,400 Climbing Fort Worth Center
04:22PM 32.8686 -97.5767 263° West 323 372 21,000 1,800 Climbing Fort Worth Center
04:23PM 32.8436 -97.6806 254° West 339 390 23,000 1,560 Climbing Fort Worth Center
04:24PM 32.8181 -97.7989 256° West 351 404 24,200 900 Climbing Fort Worth Center
04:25PM 32.7842 -97.9225 252° West 372 428 24,900 1,200 Climbing Fort Worth Center
04:26PM 32.7525 -98.0483 253° West 392 451 26,600 1,800 Climbing Fort Worth Center
04:27PM 32.7225 -98.1764 254° West 403 464 28,600 1,980 Climbing Fort Worth Center
04:28PM 32.6944 -98.2972 255° West 397 457 30,600 1,860 Climbing Fort Worth Center
04:29PM 32.6853 -98.4206 265° West 387 445 32,400 1,380 Climbing Fort Worth Center
04:30PM 32.6717 -98.5436 263° West 365 420 33,400 1,260 Climbing Fort Worth Center
04:31PM 32.6414 -98.6617 253° West 365 420 35,000 1,200 Climbing Fort Worth Center
04:32PM 32.6214 -98.7775 258° West 365 420 35,900 480 Climbing Fort Worth Center
04:33PM 32.6117 -98.8956 264° West 365 420 36,000  Climbing Fort Worth Center
04:34PM 32.5997 -99.0139 263° West 370 426 36,000  Level Fort Worth Center
04:35PM 32.5878 -99.1344 263° West 370 426 36,000  Level Fort Worth Center
04:36PM 32.5778 -99.2500 264° West 370 426 36,000  Level Fort Worth Center
04:37PM 32.5653 -99.3731 263° West 370 426 36,000  Level Fort Worth Center
04:38PM 32.5531 -99.4911 263° West 370 426 36,000  Level Fort Worth Center
04:39PM 32.5431 -99.5944 263° West 370 426 36,000  Level Fort Worth Center
04:40PM 32.5283 -99.7147 262° West 370 426 36,000  Level Fort Worth Center
04:41PM 32.5178 -99.8353 264° West 370 426 36,000  Level Fort Worth Center
04:42PM 32.5069 -99.9531 264° West 370 426 36,000  Level Fort Worth Center
04:43PM 32.4961 -100.0761 264° West 370 426 36,000  Level Fort Worth Center
04:44PM 32.4853 -100.1914 264° West 370 426 36,000  Level Fort Worth Center
04:45PM 32.4742 -100.3094 264° West 370 426 36,000  Level Fort Worth Center
04:46PM 32.4611 -100.4269 263° West 365 420 36,000  Level Fort Worth Center
04:47PM 32.4497 -100.5447 263° West 365 420 36,000  Level Fort Worth Center
04:48PM 32.4386 -100.6600 264° West 365 420 36,000  Level Fort Worth Center
04:49PM 32.4250 -100.7803 262° West 365 420 36,000  Level Fort Worth Center
04:50PM 32.4133 -100.8956 263° West 365 420 36,000  Level Fort Worth Center
04:51PM 32.4017 -101.0156 263° West 365 420 36,000  Level Fort Worth Center
04:52PM 32.3856 -101.1428 262° West 365 420 36,000  Level Fort Worth Center
04:53PM 32.3736 -101.2603 263° West 365 420 36,000  Level Fort Worth Center
04:54PM 32.3594 -101.3778 262° West 365 420 36,000  Level Fort Worth Center
04:55PM 32.3472 -101.4953 263° West 365 420 36,000  Level Fort Worth Center
04:56PM 32.3331 -101.6128 262° West 365 420 36,000  Level Fort Worth Center
04:57PM 32.3206 -101.7325 263° West 365 420 36,000  Level Fort Worth Center
04:58PM 32.3061 -101.8447 261° West 365 420 36,000  Level Fort Worth Center
04:59PM 32.2936 -101.9647 263° West 365 420 36,000  Level Fort Worth Center
05:00PM 32.2789 -102.0819 262° West 365 420 36,000  Level Fort Worth Center
05:01PM 32.2639 -102.1989 261° West 365 420 36,000  Level Fort Worth Center
05:02PM 32.2511 -102.3186 263° West 365 420 36,000  Level Fort Worth Center
05:03PM 32.2361 -102.4356 261° West 365 420 36,000  Level Fort Worth Center
05:04PM 32.2250 -102.5528 264° West 365 420 36,000  Level Fort Worth Center
05:05PM 32.2119 -102.6675 262° West 365 420 36,000  Level Fort Worth Center
05:06PM 32.1964 -102.7869 261° West 365 420 36,000  Level Fort Worth Center
05:07PM 32.1736 -102.9711 262° West 358 412 36,000  Level Albuquerque Center
05:08PM 32.1592 -103.0856 262° West 355 409 36,000  Level Albuquerque Center
05:09PM 32.1444 -103.2017 262° West 356 410 36,000  Level Albuquerque Center
05:10PM 32.1297 -103.3158 261° West 354 407 36,000  Level Albuquerque Center
05:11PM 32.1150 -103.4308 261° West 355 409 36,000  Level Albuquerque Center
05:12PM 32.1003 -103.5447 261° West 353 406 36,000  Level Albuquerque Center
05:13PM 32.0844 -103.6606 261° West 356 410 36,000  Level Albuquerque Center
05:14PM 32.0703 -103.7983 263° West 355 409 36,000  Level Albuquerque Center
05:15PM 32.0561 -103.9139 262° West 357 411 36,000  Level Albuquerque Center
05:16PM 32.0403 -104.0275 261° West 353 406 36,000  Level Albuquerque Center
05:18PM 32.0247 -104.1350 260° West 353 406 36,000  Level Albuquerque Center
05:19PM 32.0097 -104.2481 261° West 351 404 36,000  Level Albuquerque Center
05:20PM 31.9944 -104.3617 261° West 352 405 36,000  Level Albuquerque Center
05:21PM 31.9794 -104.4972 263° West 350 403 36,000 -60 Level Albuquerque Center
05:22PM 31.9683 -104.6125 264° West 354 407 35,900 -1,560 Descending Albuquerque Center
05:23PM 31.9542 -104.7289 262° West 358 412 32,900 -2,700 Descending Albuquerque Center
05:24PM 31.9428 -104.8486 264° West 363 418 30,400 -2,280 Descending Albuquerque Center
05:25PM 31.9311 -104.9631 263° West 362 417 28,200 -2,100 Descending Albuquerque Center
05:26PM 31.9197 -105.0708 263° West 353 406 26,100 -2,040 Descending Albuquerque Center
05:27PM 31.9092 -105.1728 263° West 338 389 24,100 -2,100 Descending Albuquerque Center
05:28PM 31.8958 -105.2869 262° West 318 366 21,800 -2,040 Descending Albuquerque Center
05:29PM 31.8867 -105.3794 263° West 297 342 20,000 -1,980 Descending Albuquerque Center
05:29PM 31.8783 -105.4400 261° West 312 359 18,700 -2,040 Descending Albuquerque Center
05:30PM 31.8747 -105.4825 264° West 315 362 17,900 -1,740 Descending Albuquerque Center
05:30PM 31.8739 -105.5189 268° West 316 364 17,500 -1,800 Descending Albuquerque Center
05:31PM 31.8747 -105.5825 271° West 309 356 16,100 -1,980 Descending Albuquerque Center
05:31PM 31.8731 -105.6169 267° West 302 348 15,500 -1,560 Descending Albuquerque Center
05:32PM 31.8672 -105.6781 264° West 298 343 14,500 -1,620 Descending Albuquerque Center
05:32PM 31.8608 -105.7225 260° West 314 361 13,700 -1,980 Descending Albuquerque Center
05:33PM 31.8564 -105.7808 265° West 316 364 12,500 -2,040 Descending Albuquerque Center
05:33PM 31.8500 -105.8256 260° West 322 371 11,700 -1,860 Descending Albuquerque Center
05:34PM 31.8431 -105.8822 262° West 315 362 10,600 -1,440 Descending Albuquerque Center
05:34PM 31.8369 -105.9389 263° West 301 346 10,100 -1,380 Descending Albuquerque Center
05:35PM 31.8311 -105.9928 263° West 284 327 9,200 -1,620 Descending Albuquerque Center
05:35PM 31.8275 -106.0264 263° West 269 310 8,500 -1,920 Descending Albuquerque Center
05:36PM 31.8206 -106.0803 261° West 273 314 7,300 -1,560 Descending Albuquerque Center
05:36PM 31.8175 -106.1114 263° West 275 316 7,100 -600 Descending Albuquerque Center
05:37PM 31.8089 -106.1811 262° West 253 291 6,600 -780 Descending Albuquerque Center
05:38PM 31.8022 -106.2411 263° West 236 272 5,800 -960 Descending Albuquerque Center
05:38PM 31.8003 -106.2633 264° West 212 244 5,600 -780 Descending Albuquerque Center
05:39PM 31.7978 -106.3033 266° West 196 226 5,000 -900 Descending Albuquerque Center
05:39PM 31.7978 -106.3189 270° West 153 176 4,700 -900 Descending Albuquerque Center
05:40PM 31.8008 -106.3558 276° West 148 170 4,100 -780 Descending Albuquerque Center
05:42PM 31.8000 -106.3667 North  Level FlightAware Approximate
05:49PM 31.8072 -106.3764 North  Level Estimated
05:50PM 31.8072 -106.3764 North  Level Estimated
05:51PM 31.8072 -106.3764 North  Level Estimated
05:52PM 31.8072 -106.3764 North  Level Estimated